Time;durP1;ratioP1;P1;durP2;ratioP2;P2;SDS_P1;SDS_P2;PMS_P1;PMS_P2;Temp;Humidity;BMP_temperature;BMP_pressure;BME280_temperature;BME280_humidity;BME280_pressure;Samples;Min_cycle;Max_cycle;Signal;HPM_P1;HPM_P2
2023/05/06 00:01:19;;;;;;;28.67;18.30;;;12.10;99.90;;;;;;5053024;28;20053;-72
2023/05/06 00:03:45;;;;;;;33.92;18.85;;;12.00;99.90;;;;;;4996114;28;204334;-72
2023/05/06 00:06:11;;;;;;;30.60;19.23;;;12.00;99.90;;;;;;5036408;28;21451;-72
2023/05/06 00:08:37;;;;;;;27.50;17.77;;;11.90;99.90;;;;;;4994307;28;213560;-72
2023/05/06 00:11:03;;;;;;;26.23;16.25;;;11.80;99.90;;;;;;5064456;28;20056;-72
2023/05/06 00:13:29;;;;;;;30.33;17.25;;;11.70;99.90;;;;;;5000422;28;230681;-72
2023/05/06 00:15:55;;;;;;;21.60;14.27;;;11.70;99.90;;;;;;5043459;28;20419;-72
2023/05/06 00:18:22;;;;;;;22.00;12.82;;;11.60;99.90;;;;;;4994109;28;209980;-71
2023/05/06 00:20:49;;;;;;;20.25;13.55;;;11.60;99.90;;;;;;5057383;28;20071;-72
2023/05/06 00:23:15;;;;;;;20.15;13.30;;;11.50;99.90;;;;;;5004589;28;211912;-71
2023/05/06 00:25:41;;;;;;;25.83;14.88;;;11.50;99.90;;;;;;5070603;28;20502;-71
2023/05/06 00:28:07;;;;;;;19.10;12.85;;;11.50;99.90;;;;;;5001598;28;211759;-71
2023/05/06 00:30:33;;;;;;;18.08;11.60;;;11.50;99.90;;;;;;5047040;28;20059;-71
2023/05/06 00:32:59;;;;;;;23.50;13.60;;;11.50;99.90;;;;;;5027586;28;209932;-71
2023/05/06 00:35:25;;;;;;;18.58;11.63;;;11.50;99.90;;;;;;5034649;28;20043;-71
2023/05/06 00:38:10;;;;;;;17.55;12.00;;;11.40;99.90;;;;;;5062005;28;20057;-71
2023/05/06 00:40:37;;;;;;;19.13;12.70;;;11.40;99.90;;;;;;5028635;28;206224;-71
2023/05/06 00:43:03;;;;;;;21.77;13.32;;;11.40;99.90;;;;;;4996131;28;213163;-70
2023/05/06 00:45:29;;;;;;;19.55;13.18;;;11.40;99.90;;;;;;5082027;28;20044;-71
2023/05/06 00:47:56;;;;;;;18.06;12.56;;;11.40;99.90;;;;;;5061562;28;217061;-70
2023/05/06 00:50:23;;;;;;;16.67;12.35;;;11.30;99.90;;;;;;5022682;28;30663;-71
2023/05/06 00:52:50;;;;;;;19.17;12.55;;;11.30;99.90;;;;;;5071882;28;20776;-71
2023/05/06 00:55:16;;;;;;;20.35;13.27;;;11.30;99.90;;;;;;5021594;28;207355;-70
2023/05/06 00:57:42;;;;;;;19.98;13.00;;;11.30;99.90;;;;;;5067958;28;20048;-70
2023/05/06 01:00:10;;;;;;;22.23;14.05;;;11.20;99.90;;;;;;5001086;28;206830;-70
2023/05/06 01:02:36;;;;;;;20.83;14.70;;;11.20;99.90;;;;;;5078331;28;20051;-72
2023/05/06 01:05:03;;;;;;;21.20;14.55;;;11.20;99.90;;;;;;4991351;28;164443;-71
2023/05/06 01:07:38;;;;;;;23.50;14.82;;;11.20;99.90;;;;;;5069950;28;20517;-70
2023/05/06 01:10:40;;;;;;;21.40;14.35;;;11.20;99.90;;;;;;5005453;28;213744;-71
2023/05/06 01:13:14;;;;;;;23.10;14.77;;;11.20;99.90;;;;;;5003737;28;215743;-71
2023/05/06 01:15:43;;;;;;;20.75;12.95;;;11.20;99.90;;;;;;5059544;28;20055;-71
2023/05/06 01:18:20;;;;;;;21.75;14.45;;;11.30;99.90;;;;;;5026464;28;213139;-71
2023/05/06 01:20:49;;;;;;;20.48;13.23;;;11.30;99.90;;;;;;5067228;28;20068;-72
2023/05/06 01:23:16;;;;;;;23.77;15.18;;;11.30;99.90;;;;;;5011460;28;217784;-70
2023/05/06 01:25:43;;;;;;;22.27;13.43;;;11.30;99.90;;;;;;5063590;28;20056;-71
2023/05/06 01:28:10;;;;;;;23.38;14.40;;;11.30;99.90;;;;;;5015820;28;228275;-69
2023/05/06 01:30:39;;;;;;;19.40;12.93;;;11.30;99.90;;;;;;5081602;28;20032;-69
2023/05/06 01:33:42;;;;;;;18.80;12.23;;;11.30;99.90;;;;;;5012437;28;216038;-70
2023/05/06 01:36:44;;;;;;;21.50;13.48;;;11.30;99.90;;;;;;5057847;28;20052;-70
2023/05/06 01:39:19;;;;;;;18.30;12.20;;;11.20;99.90;;;;;;5001768;28;213089;-71
2023/05/06 01:41:48;;;;;;;21.02;14.02;;;11.10;99.90;;;;;;5068984;28;20052;-71
2023/05/06 01:44:16;;;;;;;18.98;12.85;;;11.00;99.90;;;;;;5009310;28;211578;-70
2023/05/06 01:46:43;;;;;;;23.02;14.48;;;11.00;99.90;;;;;;5051870;28;20052;-70
2023/05/06 01:49:10;;;;;;;21.08;13.48;;;11.00;99.90;;;;;;4975746;28;208359;-70
2023/05/06 01:51:37;;;;;;;22.55;14.15;;;10.90;99.90;;;;;;5041198;28;20664;-70
2023/05/06 01:54:04;;;;;;;21.80;14.02;;;10.90;99.90;;;;;;4990663;28;209258;-71
2023/05/06 01:56:30;;;;;;;24.02;13.63;;;10.90;99.90;;;;;;5054299;28;20403;-71
2023/05/06 01:58:58;;;;;;;24.30;15.45;;;10.80;99.90;;;;;;4983103;28;227227;-71
2023/05/06 02:01:24;;;;;;;23.00;15.80;;;10.80;99.90;;;;;;5062682;28;20060;-70
2023/05/06 02:03:50;;;;;;;25.42;16.05;;;10.80;99.90;;;;;;4997279;28;212459;-70
2023/05/06 02:06:16;;;;;;;24.08;16.10;;;10.80;99.90;;;;;;5045686;28;20435;-69
2023/05/06 02:08:43;;;;;;;23.42;15.93;;;10.80;99.90;;;;;;4996537;28;234634;-70
2023/05/06 02:11:09;;;;;;;20.90;14.40;;;10.80;99.90;;;;;;5049619;28;20053;-70
2023/05/06 02:13:35;;;;;;;22.30;15.27;;;10.70;99.90;;;;;;4982671;28;211515;-72
2023/05/06 02:16:01;;;;;;;23.30;15.13;;;10.70;99.90;;;;;;5049913;28;20045;-70
2023/05/06 02:18:27;;;;;;;26.58;15.18;;;10.60;99.90;;;;;;4997652;28;215497;-70
2023/05/06 02:20:54;;;;;;;26.30;17.10;;;10.60;99.90;;;;;;5056541;28;20057;-71
2023/05/06 02:23:20;;;;;;;26.35;17.15;;;10.70;99.90;;;;;;4992572;28;213319;-71
2023/05/06 02:25:46;;;;;;;23.27;15.55;;;10.70;99.90;;;;;;5043690;28;20721;-71
2023/05/06 02:28:12;;;;;;;21.52;15.38;;;10.70;99.90;;;;;;5015938;28;207761;-70
2023/05/06 02:30:38;;;;;;;23.33;14.90;;;10.70;99.90;;;;;;5056041;28;21132;-71
2023/05/06 02:33:04;;;;;;;21.67;16.20;;;10.70;99.90;;;;;;5001096;28;212266;-70
2023/05/06 02:35:30;;;;;;;24.30;16.33;;;10.70;99.90;;;;;;5039283;28;20048;-70
2023/05/06 02:37:57;;;;;;;24.25;16.38;;;10.70;99.90;;;;;;5019836;28;213733;-70
2023/05/06 02:40:23;;;;;;;26.98;17.25;;;10.80;99.90;;;;;;5010484;28;276135;-71
2023/05/06 02:42:49;;;;;;;23.55;15.52;;;10.80;99.90;;;;;;5058684;28;20052;-71
2023/05/06 02:45:15;;;;;;;21.77;15.15;;;10.70;99.90;;;;;;5021817;28;206184;-71
2023/05/06 02:47:42;;;;;;;21.27;15.30;;;10.70;99.90;;;;;;5071749;28;20082;-71
2023/05/06 02:50:08;;;;;;;28.30;15.35;;;10.70;99.90;;;;;;4996092;28;209336;-71
2023/05/06 02:52:34;;;;;;;23.73;14.75;;;10.60;99.90;;;;;;5075136;28;20052;-71
2023/05/06 02:55:01;;;;;;;22.85;15.15;;;10.60;99.90;;;;;;5019478;28;215654;-71
2023/05/06 02:57:27;;;;;;;20.80;15.02;;;10.50;99.90;;;;;;5072351;28;20047;-72
2023/05/06 02:59:53;;;;;;;25.33;16.83;;;10.50;99.90;;;;;;4992667;28;212464;-71
2023/05/06 03:02:19;;;;;;;26.35;17.65;;;10.50;99.90;;;;;;5073478;28;20056;-71
2023/05/06 03:04:45;;;;;;;22.35;15.95;;;10.50;99.90;;;;;;5004878;28;204590;-72
2023/05/06 03:07:11;;;;;;;25.52;17.00;;;10.60;99.90;;;;;;5071024;28;20044;-71
2023/05/06 03:09:38;;;;;;;23.70;15.00;;;10.50;99.90;;;;;;5014322;28;218875;-71
2023/05/06 03:12:05;;;;;;;25.02;16.80;;;10.40;99.90;;;;;;5071793;28;20059;-70
2023/05/06 03:14:31;;;;;;;22.20;15.75;;;10.40;99.90;;;;;;5010258;28;206219;-71
2023/05/06 03:16:57;;;;;;;21.30;15.35;;;10.30;99.90;;;;;;5078969;28;20040;-71
2023/05/06 03:19:23;;;;;;;26.13;17.35;;;10.30;99.90;;;;;;5004937;28;229973;-72
2023/05/06 03:21:49;;;;;;;25.75;15.50;;;10.20;99.90;;;;;;5057595;28;20045;-72
2023/05/06 03:24:15;;;;;;;21.67;15.90;;;10.20;99.90;;;;;;4996907;28;206761;-71
2023/05/06 03:26:41;;;;;;;26.42;17.63;;;10.20;99.90;;;;;;5074269;28;20506;-71
2023/05/06 03:29:07;;;;;;;24.42;17.05;;;10.20;99.90;;;;;;5007361;28;205745;-71
2023/05/06 03:31:33;;;;;;;27.40;17.65;;;10.20;99.90;;;;;;5073438;28;20051;-70
2023/05/06 03:34:00;;;;;;;29.58;18.23;;;10.20;99.90;;;;;;5010348;28;213673;-71
2023/05/06 03:36:26;;;;;;;24.05;15.75;;;10.20;99.90;;;;;;5057069;28;20526;-71
2023/05/06 03:38:53;;;;;;;20.83;14.43;;;10.20;99.90;;;;;;5005076;28;211457;-70
2023/05/06 03:41:20;;;;;;;22.45;14.90;;;10.10;99.90;;;;;;5055363;28;20051;-70
2023/05/06 03:43:46;;;;;;;26.98;16.50;;;10.00;99.90;;;;;;4998667;28;136654;-71
2023/05/06 03:46:12;;;;;;;23.17;14.20;;;10.00;99.90;;;;;;5063642;28;20049;-70
2023/05/06 03:48:38;;;;;;;24.30;16.40;;;9.90;99.90;;;;;;4998719;28;212512;-71
2023/05/06 03:51:04;;;;;;;22.25;15.05;;;9.90;99.90;;;;;;5060716;28;20040;-71
2023/05/06 03:53:30;;;;;;;22.98;16.20;;;9.80;99.90;;;;;;5006145;28;206928;-71
2023/05/06 03:55:57;;;;;;;27.73;17.50;;;9.70;99.90;;;;;;5048338;28;20053;-71
2023/05/06 03:58:23;;;;;;;28.10;16.55;;;9.70;99.90;;;;;;4976457;28;206968;-71
2023/05/06 04:00:49;;;;;;;27.08;16.45;;;9.70;99.90;;;;;;5036273;28;20067;-71
2023/05/06 04:03:15;;;;;;;28.50;18.08;;;9.70;99.90;;;;;;4995215;28;211437;-71
2023/05/06 04:05:41;;;;;;;32.03;18.25;;;9.60;99.90;;;;;;5052736;28;20052;-71
2023/05/06 04:08:08;;;;;;;27.03;17.90;;;9.60;99.90;;;;;;5003160;28;214895;-70
2023/05/06 04:10:38;;;;;;;30.75;18.38;;;9.60;99.90;;;;;;5040435;28;20032;-71
2023/05/06 04:13:05;;;;;;;34.88;18.92;;;9.60;99.90;;;;;;5003566;28;212929;-71
2023/05/06 04:15:33;;;;;;;25.52;16.95;;;9.60;99.90;;;;;;5049066;28;20054;-71
2023/05/06 04:17:59;;;;;;;24.63;16.30;;;9.60;99.90;;;;;;5034736;28;209092;-71
2023/05/06 04:20:26;;;;;;;39.85;21.20;;;9.60;99.90;;;;;;5068839;28;20066;-72
2023/05/06 04:22:52;;;;;;;34.67;21.38;;;9.60;99.90;;;;;;5074400;28;20059;-71
2023/05/06 04:25:21;;;;;;;35.17;20.90;;;9.60;99.90;;;;;;4986657;28;260676;-71
2023/05/06 04:27:47;;;;;;;39.97;22.95;;;9.60;99.90;;;;;;5061874;28;20048;-71
2023/05/06 04:30:13;;;;;;;26.38;17.30;;;9.60;99.90;;;;;;4995549;28;216429;-72
2023/05/06 04:32:39;;;;;;;37.53;21.50;;;9.70;99.90;;;;;;5062725;28;20036;-72
2023/05/06 04:35:06;;;;;;;37.03;22.17;;;9.70;99.90;;;;;;4991126;28;212288;-72
2023/05/06 04:37:32;;;;;;;31.48;20.00;;;9.80;99.90;;;;;;5060338;28;20418;-72
2023/05/06 04:40:00;;;;;;;35.47;21.95;;;9.80;99.90;;;;;;4989730;28;211035;-72
2023/05/06 04:42:26;;;;;;;31.73;19.50;;;9.80;99.90;;;;;;5057560;28;20063;-71
2023/05/06 04:44:52;;;;;;;28.38;19.02;;;9.90;99.90;;;;;;4979429;28;264992;-71
2023/05/06 04:47:18;;;;;;;33.03;19.65;;;9.80;99.90;;;;;;5055445;28;20414;-72
2023/05/06 04:49:44;;;;;;;32.65;19.88;;;9.90;99.90;;;;;;4980872;28;206979;-72
2023/05/06 04:52:10;;;;;;;32.53;20.70;;;10.00;99.90;;;;;;5056647;28;20068;-72
2023/05/06 04:54:36;;;;;;;31.27;20.20;;;10.00;99.90;;;;;;5011159;28;211165;-72
2023/05/06 04:57:02;;;;;;;25.40;16.70;;;10.10;99.90;;;;;;5072616;28;20036;-72
2023/05/06 04:59:28;;;;;;;31.70;20.48;;;10.20;99.90;;;;;;4977033;28;218951;-72
2023/05/06 05:01:55;;;;;;;41.47;22.85;;;10.30;99.90;;;;;;5058394;28;20053;-71
2023/05/06 05:04:21;;;;;;;34.10;22.02;;;10.40;99.90;;;;;;5012311;28;210587;-71
2023/05/06 05:06:47;;;;;;;31.75;21.40;;;10.50;99.90;;;;;;5067022;28;20698;-71
2023/05/06 05:09:13;;;;;;;43.13;24.85;;;10.60;99.90;;;;;;5002268;28;208129;-71
2023/05/06 05:11:39;;;;;;;31.60;19.52;;;10.70;99.90;;;;;;5063761;28;20056;-71
2023/05/06 05:14:05;;;;;;;38.05;23.23;;;10.80;99.90;;;;;;5003698;28;211294;-71
2023/05/06 05:16:31;;;;;;;37.40;23.35;;;10.90;99.90;;;;;;5061191;28;20052;-71
2023/05/06 05:18:57;;;;;;;38.42;24.90;;;10.90;99.90;;;;;;4999583;28;210534;-71
2023/05/06 05:21:23;;;;;;;41.83;23.15;;;11.00;99.90;;;;;;5051253;28;20063;-71
2023/05/06 05:23:50;;;;;;;38.75;24.83;;;11.10;99.90;;;;;;4992555;28;213512;-71
2023/05/06 05:26:16;;;;;;;40.60;24.80;;;11.10;99.90;;;;;;5020189;28;20075;-72
2023/05/06 05:28:43;;;;;;;34.45;21.65;;;11.20;99.90;;;;;;5004096;28;214283;-72
2023/05/06 05:31:09;;;;;;;38.42;24.05;;;11.20;99.90;;;;;;5056715;28;20059;-72
2023/05/06 05:33:35;;;;;;;33.30;21.95;;;11.30;99.90;;;;;;4996465;28;213573;-72
2023/05/06 05:36:01;;;;;;;33.95;22.45;;;11.30;99.90;;;;;;5059133;28;20487;-71
2023/05/06 05:38:27;;;;;;;34.85;23.42;;;11.40;99.90;;;;;;4991686;28;213399;-71
2023/05/06 05:40:53;;;;;;;30.23;19.83;;;11.40;99.90;;;;;;5032171;28;20545;-71
2023/05/06 05:43:20;;;;;;;38.78;23.00;;;11.40;99.90;;;;;;4997812;28;213948;-71
2023/05/06 05:45:47;;;;;;;32.97;22.27;;;11.40;99.90;;;;;;5047428;28;20055;-71
2023/05/06 05:48:13;;;;;;;36.88;24.75;;;11.50;99.90;;;;;;4994515;28;214665;-68
2023/05/06 05:50:39;;;;;;;34.58;20.65;;;11.50;99.90;;;;;;5044075;28;20453;-74
2023/05/06 05:53:05;;;;;;;34.90;22.88;;;11.60;99.90;;;;;;4998530;28;211001;-73
2023/05/06 05:55:31;;;;;;;37.30;24.25;;;11.70;99.90;;;;;;5061507;28;20159;-73
2023/05/06 05:57:57;;;;;;;39.33;24.90;;;11.80;99.90;;;;;;5045368;28;220969;-73
2023/05/06 06:00:23;;;;;;;38.65;24.35;;;12.10;99.90;;;;;;5016137;28;208699;-74
2023/05/06 06:02:49;;;;;;;35.65;23.25;;;12.30;99.90;;;;;;5071696;28;20063;-74
2023/05/06 06:05:16;;;;;;;31.60;21.17;;;12.40;99.90;;;;;;5009639;28;209532;-73
2023/05/06 06:07:42;;;;;;;30.67;19.52;;;12.50;99.90;;;;;;5077926;28;20040;-74
2023/05/06 06:10:08;;;;;;;28.60;19.88;;;12.50;99.90;;;;;;5023157;28;228167;-74
2023/05/06 06:12:34;;;;;;;25.58;18.23;;;12.60;99.90;;;;;;5078734;28;20040;-74
2023/05/06 06:15:00;;;;;;;25.35;17.73;;;12.60;99.90;;;;;;5024075;28;214096;-74
2023/05/06 06:17:26;;;;;;;25.95;18.73;;;12.60;99.90;;;;;;5072817;28;20060;-73
2023/05/06 06:19:56;;;;;;;27.40;19.25;;;12.60;99.90;;;;;;5006212;28;216079;-74
2023/05/06 06:22:22;;;;;;;26.17;18.52;;;12.70;99.90;;;;;;5077478;28;20059;-73
2023/05/06 06:24:49;;;;;;;26.75;19.05;;;12.80;99.90;;;;;;5001520;28;207523;-73
2023/05/06 06:27:15;;;;;;;25.48;18.05;;;12.80;99.90;;;;;;5052846;28;20044;-74
2023/05/06 06:29:41;;;;;;;26.65;18.25;;;12.80;99.90;;;;;;4990020;28;208459;-73
2023/05/06 06:32:07;;;;;;;24.60;17.30;;;12.80;99.90;;;;;;5069289;28;20088;-73
2023/05/06 06:34:33;;;;;;;23.88;16.83;;;13.10;99.90;;;;;;5017703;28;213160;-72
2023/05/06 06:37:00;;;;;;;22.75;16.42;;;13.20;99.90;;;;;;5082217;28;20055;-72
2023/05/06 06:39:26;;;;;;;20.58;14.63;;;13.50;99.90;;;;;;5029451;28;209051;-72
2023/05/06 06:41:55;;;;;;;19.55;14.85;;;13.80;99.90;;;;;;5088027;28;20425;-71
2023/05/06 06:44:21;;;;;;;22.38;15.05;;;13.90;99.90;;;;;;5025556;28;212524;-71
2023/05/06 06:46:47;;;;;;;21.27;15.95;;;13.90;99.90;;;;;;5075442;28;20052;-71
2023/05/06 06:49:13;;;;;;;21.15;15.70;;;13.90;99.90;;;;;;5004321;28;205445;-72
2023/05/06 06:51:39;;;;;;;19.40;14.05;;;14.00;99.90;;;;;;5069090;28;20174;-72
2023/05/06 06:54:05;;;;;;;19.85;14.68;;;14.10;99.90;;;;;;5016553;28;211727;-71
2023/05/06 06:56:31;;;;;;;20.20;14.82;;;14.20;99.90;;;;;;5071784;28;20048;-72
2023/05/06 06:58:58;;;;;;;19.88;14.40;;;14.20;99.90;;;;;;4996225;28;222042;-71
2023/05/06 07:01:24;;;;;;;20.08;14.80;;;14.30;99.90;;;;;;5056244;28;20059;-72
2023/05/06 07:03:50;;;;;;;20.17;15.60;;;14.30;99.90;;;;;;5021315;28;210855;-71
2023/05/06 07:06:16;;;;;;;22.77;14.90;;;14.40;99.90;;;;;;5065461;28;20048;-72
2023/05/06 07:08:42;;;;;;;20.00;14.27;;;14.50;99.90;;;;;;5007201;28;208823;-72
2023/05/06 07:11:08;;;;;;;22.95;14.57;;;14.50;99.90;;;;;;5050062;28;20407;-72
2023/05/06 07:13:35;;;;;;;19.98;14.45;;;14.70;99.90;;;;;;5013956;28;209085;-72
2023/05/06 07:16:01;;;;;;;16.90;12.77;;;14.60;99.90;;;;;;5058473;28;20066;-72
2023/05/06 07:18:28;;;;;;;19.63;13.85;;;14.80;99.90;;;;;;5020314;28;211792;-72
2023/05/06 07:20:54;;;;;;;19.48;14.15;;;15.00;99.90;;;;;;5074230;28;20567;-72
2023/05/06 07:23:20;;;;;;;19.00;12.88;;;15.30;99.90;;;;;;5012714;28;209789;-72
2023/05/06 07:25:47;;;;;;;18.00;12.40;;;15.40;99.90;;;;;;5045207;28;20423;-71
2023/05/06 07:28:14;;;;;;;19.50;13.35;;;15.60;99.90;;;;;;5017920;28;210645;-71
2023/05/06 07:30:40;;;;;;;18.85;12.93;;;16.00;99.90;;;;;;5080307;28;20045;-72
2023/05/06 07:33:06;;;;;;;17.20;12.07;;;16.60;99.90;;;;;;5011192;28;212838;-72
2023/05/06 07:35:32;;;;;;;17.02;11.60;;;16.90;99.90;;;;;;5060949;28;20134;-72
2023/05/06 07:37:59;;;;;;;14.43;9.88;;;17.20;99.90;;;;;;5031148;28;212167;-71
2023/05/06 07:40:25;;;;;;;22.13;10.77;;;17.30;99.90;;;;;;5042945;28;20052;-71
2023/05/06 07:42:51;;;;;;;14.00;9.55;;;17.40;99.90;;;;;;5062529;28;20426;-72
2023/05/06 07:45:18;;;;;;;12.98;8.88;;;17.50;99.90;;;;;;5002936;28;215432;-72
2023/05/06 07:47:44;;;;;;;13.70;8.65;;;17.70;99.90;;;;;;5074019;28;20044;-72
2023/05/06 07:50:11;;;;;;;14.40;8.60;;;17.70;99.90;;;;;;5010475;28;162371;-72
2023/05/06 07:52:37;;;;;;;12.68;8.40;;;17.80;99.90;;;;;;5079083;28;20800;-72
2023/05/06 07:55:03;;;;;;;12.20;7.70;;;18.10;99.90;;;;;;5008192;28;160076;-72
2023/05/06 07:57:30;;;;;;;10.98;6.95;;;18.60;99.90;;;;;;5078333;28;20071;-72
2023/05/06 07:59:57;;;;;;;11.60;7.72;;;19.10;99.90;;;;;;4972267;28;210764;-72
2023/05/06 08:02:23;;;;;;;9.85;5.40;;;19.50;99.90;;;;;;5062073;28;20053;-72
2023/05/06 08:04:49;;;;;;;9.50;5.18;;;19.90;99.90;;;;;;5002990;28;215722;-71
2023/05/06 08:07:15;;;;;;;9.32;4.35;;;19.50;99.90;;;;;;5076803;28;20044;-72
2023/05/06 08:09:41;;;;;;;8.45;3.80;;;19.50;99.90;;;;;;5021545;28;210453;-72
2023/05/06 08:12:08;;;;;;;8.43;3.60;;;20.00;99.90;;;;;;5073716;28;20064;-72
2023/05/06 08:14:34;;;;;;;9.65;3.70;;;20.20;99.90;;;;;;5016903;28;220001;-72
2023/05/06 08:17:01;;;;;;;8.23;3.60;;;20.10;99.90;;;;;;5070368;28;20060;-71
2023/05/06 08:19:27;;;;;;;9.02;3.80;;;20.40;99.90;;;;;;5017919;28;214098;-72
2023/05/06 08:21:53;;;;;;;7.68;3.53;;;20.90;99.90;;;;;;5057875;28;20079;-72
2023/05/06 08:24:19;;;;;;;8.18;3.95;;;21.30;99.90;;;;;;4997096;28;212978;-72
2023/05/06 08:26:46;;;;;;;8.02;3.50;;;21.60;99.90;;;;;;5071455;28;20198;-71
2023/05/06 08:29:12;;;;;;;9.88;3.75;;;21.80;99.90;;;;;;5016840;28;210819;-72
2023/05/06 08:31:38;;;;;;;8.27;3.83;;;21.50;99.90;;;;;;5067243;28;20056;-71
2023/05/06 08:34:04;;;;;;;7.65;3.30;;;21.70;99.90;;;;;;5008524;28;213170;-71
2023/05/06 08:36:31;;;;;;;11.32;4.20;;;21.70;99.90;;;;;;5057937;28;20047;-71
2023/05/06 08:38:57;;;;;;;8.73;4.22;;;21.90;99.90;;;;;;5004434;28;190756;-72
2023/05/06 08:41:27;;;;;;;10.40;3.80;;;22.40;99.90;;;;;;5073095;28;20071;-72
2023/05/06 08:43:55;;;;;;;9.57;3.90;;;22.90;99.90;;;;;;5010279;28;207345;-71
2023/05/06 08:46:22;;;;;;;9.43;4.70;;;22.40;99.90;;;;;;5055066;28;20048;-72
2023/05/06 08:48:49;;;;;;;10.50;4.47;;;22.60;99.90;;;;;;5014640;28;226660;-72
2023/05/06 08:51:15;;;;;;;10.27;5.07;;;23.20;99.90;;;;;;5074307;28;20040;-71
2023/05/06 08:53:47;;;;;;;8.88;4.20;;;23.70;99.90;;;;;;5020187;28;210527;-72
2023/05/06 08:56:15;;;;;;;11.27;6.20;;;23.90;99.90;;;;;;5084891;28;20043;-71
2023/05/06 08:58:47;;;;;;;11.88;6.05;;;24.20;99.90;;;;;;5006371;28;239961;-72
2023/05/06 09:01:14;;;;;;;12.55;6.70;;;24.20;99.90;;;;;;5076692;28;20053;-72
2023/05/06 09:03:40;;;;;;;11.25;5.80;;;24.50;99.90;;;;;;5025380;28;210379;-72
2023/05/06 09:06:07;;;;;;;10.48;5.25;;;24.70;99.90;;;;;;5081042;28;20414;-74
2023/05/06 09:08:33;;;;;;;8.45;3.92;;;25.10;99.90;;;;;;5014725;28;188940;-72
2023/05/06 09:10:59;;;;;;;10.18;5.20;;;25.40;97.90;;;;;;5052775;28;20052;-71
2023/05/06 09:13:25;;;;;;;12.68;4.85;;;24.90;97.40;;;;;;5027077;28;209891;-72
2023/05/06 09:15:54;;;;;;;8.32;3.53;;;24.70;98.90;;;;;;5078497;28;20060;-71
2023/05/06 09:18:21;;;;;;;11.55;3.83;;;25.00;96.40;;;;;;5017501;28;211128;-72
2023/05/06 09:20:48;;;;;;;9.68;4.13;;;25.00;97.60;;;;;;5082098;28;20049;-72
2023/05/06 09:23:16;;;;;;;10.25;4.00;;;25.40;97.40;;;;;;5020165;28;221958;-71
2023/05/06 09:25:43;;;;;;;8.88;4.32;;;25.40;96.40;;;;;;5072585;28;20056;-71
2023/05/06 09:28:11;;;;;;;10.48;4.20;;;25.70;96.80;;;;;;5014288;28;219830;-71
2023/05/06 09:30:41;;;;;;;9.65;4.40;;;26.00;96.20;;;;;;5073806;28;20045;-72
2023/05/06 09:33:08;;;;;;;11.10;5.65;;;26.10;95.90;;;;;;5022302;28;209111;-72
2023/05/06 09:35:38;;;;;;;10.55;4.50;;;26.40;96.70;;;;;;5056513;28;20773;-73
2023/05/06 09:38:06;;;;;;;10.70;4.03;;;26.70;95.80;;;;;;5008872;28;209166;-73
2023/05/06 09:40:33;;;;;;;8.23;3.15;;;26.40;93.20;;;;;;5060496;28;20044;-71
2023/05/06 09:43:00;;;;;;;9.80;3.53;;;25.30;93.90;;;;;;5026062;28;228891;-71
2023/05/06 09:45:27;;;;;;;9.90;3.50;;;23.90;94.90;;;;;;5066759;28;20140;-73
2023/05/06 09:47:54;;;;;;;10.40;3.90;;;23.70;96.10;;;;;;5063002;28;231970;-72
2023/05/06 09:50:21;;;;;;;13.10;4.22;;;24.10;96.60;;;;;;5023883;28;206445;-72
2023/05/06 09:52:49;;;;;;;11.77;4.10;;;24.90;95.60;;;;;;5076628;28;20049;-73
2023/05/06 09:55:18;;;;;;;11.02;4.50;;;25.50;95.20;;;;;;5001458;28;213738;-71
2023/05/06 09:57:45;;;;;;;9.68;4.43;;;25.90;93.60;;;;;;5076150;28;20418;-71
2023/05/06 10:00:12;;;;;;;11.70;4.93;;;26.40;95.30;;;;;;4997176;28;208526;-72
2023/05/06 10:02:39;;;;;;;9.07;4.60;;;26.10;95.20;;;;;;5070021;28;20044;-71
2023/05/06 10:05:08;;;;;;;11.55;4.75;;;25.70;95.30;;;;;;5005849;28;209925;-72
2023/05/06 10:07:35;;;;;;;11.50;5.60;;;25.30;95.60;;;;;;5080644;28;20063;-71
2023/05/06 10:10:02;;;;;;;10.98;5.25;;;24.90;95.10;;;;;;5014723;28;212925;-72
2023/05/06 10:12:29;;;;;;;13.02;5.53;;;24.50;94.70;;;;;;5073502;28;20040;-72
2023/05/06 10:14:56;;;;;;;11.02;6.07;;;24.30;95.70;;;;;;4998989;28;215907;-71
2023/05/06 10:17:27;;;;;;;12.20;6.40;;;24.20;95.40;;;;;;5070200;28;20060;-71
2023/05/06 10:19:58;;;;;;;10.95;5.88;;;24.50;95.10;;;;;;5019962;28;210549;-71
2023/05/06 10:22:39;;;;;;;11.93;6.53;;;24.10;95.90;;;;;;5077659;28;20048;-72
2023/05/06 10:25:26;;;;;;;10.95;6.60;;;24.80;95.10;;;;;;5017856;28;210292;-72
2023/05/06 10:27:53;;;;;;;12.23;6.85;;;25.20;95.40;;;;;;5079320;28;20079;-73
2023/05/06 10:30:19;;;;;;;14.95;7.68;;;24.80;95.40;;;;;;5016652;28;202938;-72
2023/05/06 10:32:45;;;;;;;13.65;7.63;;;24.60;96.00;;;;;;5073756;28;20051;-73
2023/05/06 10:35:33;;;;;;;12.93;6.60;;;24.70;95.40;;;;;;5003427;28;205917;-73
2023/05/06 10:38:02;;;;;;;12.05;6.88;;;24.50;95.40;;;;;;5032111;28;213325;-72
2023/05/06 10:40:28;;;;;;;11.35;6.30;;;25.30;94.90;;;;;;5066685;28;20495;-73
2023/05/06 10:43:26;;;;;;;12.88;6.05;;;25.90;95.20;;;;;;5055068;28;228386;-70
2023/05/06 10:46:01;;;;;;;14.35;6.20;;;26.50;92.90;;;;;;4997108;28;129514;-72
2023/05/06 10:48:29;;;;;;;12.90;6.70;;;25.70;93.20;;;;;;5010176;28;212294;-72
2023/05/06 10:51:31;;;;;;;13.20;6.60;;;24.70;94.90;;;;;;5061533;28;20051;-71
2023/05/06 10:54:08;;;;;;;12.98;6.95;;;23.50;94.50;;;;;;5005398;28;212857;-73
2023/05/06 10:56:39;;;;;;;14.15;7.80;;;23.20;95.70;;;;;;5066768;28;20517;-71
2023/05/06 10:59:08;;;;;;;13.48;7.65;;;22.90;96.10;;;;;;4975933;28;210362;-72
2023/05/06 11:01:36;;;;;;;15.20;8.15;;;22.90;96.20;;;;;;5043599;28;20063;-72
2023/05/06 11:04:10;;;;;;;15.18;8.90;;;22.60;96.10;;;;;;4999748;28;218872;-72
2023/05/06 11:06:43;;;;;;;14.88;9.80;;;22.00;96.60;;;;;;5052729;28;20049;-72
2023/05/06 11:09:16;;;;;;;16.42;10.80;;;21.90;96.80;;;;;;4992213;28;207811;-72
2023/05/06 11:11:46;;;;;;;16.35;10.80;;;21.90;97.00;;;;;;5053105;28;20055;-72
2023/05/06 11:14:23;;;;;;;14.93;9.88;;;22.00;97.20;;;;;;5014146;28;188349;-72
2023/05/06 11:16:50;;;;;;;16.83;11.07;;;21.90;97.40;;;;;;5051779;28;20074;-72
2023/05/06 11:19:26;;;;;;;17.60;10.43;;;21.90;97.40;;;;;;5008610;28;205469;-72
2023/05/06 11:21:53;;;;;;;16.88;10.30;;;22.40;97.70;;;;;;5069840;28;20375;-72
2023/05/06 11:24:39;;;;;;;14.95;9.77;;;22.60;97.50;;;;;;4975062;28;205941;-72
2023/05/06 11:27:05;;;;;;;16.10;10.18;;;22.50;97.30;;;;;;5066849;28;20048;-73
2023/05/06 11:29:32;;;;;;;17.38;11.25;;;22.50;97.40;;;;;;5010152;28;213293;-72
2023/05/06 11:31:58;;;;;;;15.05;9.95;;;22.20;97.20;;;;;;5071181;28;20057;-73
2023/05/06 11:34:26;;;;;;;16.45;10.27;;;22.30;97.90;;;;;;5003221;28;214746;-72
2023/05/06 11:37:05;;;;;;;14.38;9.65;;;22.70;97.20;;;;;;5074201;28;20515;-72
2023/05/06 11:39:33;;;;;;;15.63;9.20;;;22.80;97.10;;;;;;5012743;28;210825;-72
2023/05/06 11:42:02;;;;;;;13.88;8.68;;;22.80;96.80;;;;;;5070281;28;20056;-73
2023/05/06 11:44:33;;;;;;;14.25;8.45;;;23.20;97.20;;;;;;5011985;28;208387;-72
2023/05/06 11:47:06;;;;;;;13.73;8.27;;;23.80;95.70;;;;;;5071343;28;20555;-72
2023/05/06 11:49:42;;;;;;;16.00;8.32;;;24.10;96.80;;;;;;5014608;28;212206;-72
2023/05/06 11:52:10;;;;;;;12.95;7.55;;;24.40;95.80;;;;;;5070404;28;20940;-72
2023/05/06 11:54:41;;;;;;;13.52;7.25;;;24.50;96.60;;;;;;4995850;28;206271;-73
2023/05/06 11:57:08;;;;;;;14.05;7.53;;;24.70;96.10;;;;;;5078090;28;20063;-72
2023/05/06 11:59:36;;;;;;;11.85;6.20;;;24.90;95.60;;;;;;4994911;28;216282;-72
2023/05/06 12:02:08;;;;;;;10.93;5.60;;;24.60;95.60;;;;;;5073066;28;20059;-72
2023/05/06 12:04:46;;;;;;;11.70;6.00;;;24.50;95.00;;;;;;4992338;28;208268;-73
2023/05/06 12:07:14;;;;;;;12.35;6.40;;;24.70;95.90;;;;;;5069602;28;20146;-73
2023/05/06 12:09:45;;;;;;;11.88;5.88;;;24.80;95.70;;;;;;5014048;28;216107;-73
2023/05/06 12:12:16;;;;;;;11.73;5.95;;;24.90;95.10;;;;;;5070451;28;20048;-73
2023/05/06 12:14:42;;;;;;;13.27;5.85;;;24.10;95.00;;;;;;5009984;28;217028;-72
2023/05/06 12:17:09;;;;;;;11.75;5.55;;;23.90;95.50;;;;;;5066636;28;20055;-72
2023/05/06 12:19:35;;;;;;;12.27;5.82;;;23.90;95.40;;;;;;5016685;28;210909;-73
2023/05/06 12:22:17;;;;;;;10.98;5.88;;;23.80;95.20;;;;;;5063587;28;20586;-73
2023/05/06 12:24:44;;;;;;;12.80;5.25;;;23.80;95.40;;;;;;4995803;28;216199;-73
2023/05/06 12:27:10;;;;;;;10.70;5.28;;;23.70;95.40;;;;;;5056820;28;20805;-73
2023/05/06 12:29:37;;;;;;;10.85;5.78;;;23.50;95.60;;;;;;4993879;28;206772;-73
2023/05/06 12:32:08;;;;;;;13.10;6.35;;;23.30;95.60;;;;;;5072816;28;20063;-73